createdAt,value
2019-05-21T00:00:22.091Z,26.20
2019-05-21T00:02:50.641Z,25.92
2019-05-21T00:05:19.337Z,25.52
2019-05-21T00:07:47.982Z,27.93
2019-05-21T00:10:16.630Z,26.45
2019-05-21T00:12:45.161Z,26.57
2019-05-21T00:15:14.232Z,26.77
2019-05-21T00:17:42.817Z,25.10
2019-05-21T00:20:12.033Z,23.55
2019-05-21T00:22:40.590Z,24.43
2019-05-21T00:25:10.156Z,23.12
2019-05-21T00:27:38.793Z,24.45
2019-05-21T00:30:44.826Z,23.65
2019-05-21T00:33:50.874Z,23.85
2019-05-21T00:36:59.854Z,23.77
2019-05-21T00:40:05.579Z,22.30
2019-05-21T00:42:38.403Z,21.90
2019-05-21T00:45:09.464Z,20.88
2019-05-21T00:47:38.219Z,21.33
2019-05-21T00:50:07.436Z,20.82
2019-05-21T00:52:35.995Z,21.02
2019-05-21T00:55:05.148Z,20.48
2019-05-21T00:57:33.701Z,21.15
2019-05-21T01:00:03.587Z,20.75
2019-05-21T01:02:32.168Z,20.95
2019-05-21T01:05:01.684Z,18.90
2019-05-21T01:07:30.437Z,19.52
2019-05-21T01:09:58.956Z,20.68
2019-05-21T01:12:27.535Z,20.10
2019-05-21T01:14:56.341Z,19.37
2019-05-21T01:17:24.875Z,19.40
2019-05-21T01:19:53.585Z,19.87
2019-05-21T01:22:22.107Z,19.17
2019-05-21T01:24:50.655Z,20.57
2019-05-21T01:27:19.164Z,19.25
2019-05-21T01:29:48.153Z,19.55
2019-05-21T01:32:16.676Z,19.17
2019-05-21T01:34:45.438Z,22.00
2019-05-21T01:37:13.986Z,19.15
2019-05-21T01:39:42.526Z,20.45
2019-05-21T01:42:11.038Z,21.68
2019-05-21T01:44:39.944Z,21.30
2019-05-21T01:47:08.561Z,22.42
2019-05-21T01:49:37.111Z,22.45
2019-05-21T01:52:05.628Z,21.33
2019-05-21T01:54:34.155Z,31.80
2019-05-21T01:57:02.791Z,30.40
2019-05-21T01:59:31.567Z,26.97
2019-05-21T02:02:00.096Z,27.25
2019-05-21T02:04:28.624Z,27.62
2019-05-21T02:06:57.217Z,29.90
2019-05-21T02:09:25.791Z,28.95
2019-05-21T02:11:54.307Z,29.42
2019-05-21T02:14:22.963Z,29.98
2019-05-21T02:16:51.583Z,31.65
2019-05-21T02:19:20.216Z,30.50
2019-05-21T02:21:48.963Z,34.53
2019-05-21T02:24:17.505Z,34.95
2019-05-21T02:26:46.258Z,34.08
2019-05-21T02:29:14.897Z,34.85
2019-05-21T02:31:43.414Z,35.40
2019-05-21T02:34:11.944Z,36.05
2019-05-21T02:36:40.491Z,36.40
2019-05-21T02:39:09.215Z,33.65
2019-05-21T02:41:37.850Z,33.30
2019-05-21T02:44:06.673Z,34.65
2019-05-21T02:46:35.187Z,37.38
2019-05-21T02:49:03.926Z,34.65
2019-05-21T02:51:32.824Z,36.00
2019-05-21T02:54:01.450Z,36.98
2019-05-21T02:56:29.971Z,35.28
2019-05-21T02:58:58.525Z,36.98
2019-05-21T03:01:36.508Z,36.75
2019-05-21T03:04:05.173Z,35.68
2019-05-21T03:06:33.996Z,36.40
2019-05-21T03:09:04.871Z,35.85
2019-05-21T03:11:33.615Z,32.60
2019-05-21T03:14:02.242Z,31.25
2019-05-21T03:16:31.028Z,32.70
2019-05-21T03:18:59.569Z,33.98
2019-05-21T03:21:28.086Z,34.38
2019-05-21T03:23:56.729Z,31.07
2019-05-21T03:26:25.267Z,31.95
2019-05-21T03:28:54.016Z,33.28
2019-05-21T03:31:22.745Z,30.72
2019-05-21T03:33:51.392Z,30.23
2019-05-21T03:36:32.793Z,30.92
2019-05-21T03:38:50.441Z,29.12
2019-05-21T03:41:19.104Z,28.00
2019-05-21T03:43:47.647Z,26.93
2019-05-21T03:46:16.183Z,27.25
2019-05-21T03:48:44.832Z,26.50
2019-05-21T03:51:13.450Z,25.52
2019-05-21T03:53:41.970Z,25.52
2019-05-21T03:56:10.616Z,24.77
2019-05-21T03:58:39.146Z,25.92
2019-05-21T04:01:07.660Z,28.95
2019-05-21T04:03:36.225Z,26.40
2019-05-21T04:06:04.770Z,26.70
2019-05-21T04:08:33.308Z,26.30
2019-05-21T04:11:01.859Z,23.77
2019-05-21T04:13:30.388Z,24.20
2019-05-21T04:16:05.175Z,22.98
2019-05-21T04:18:38.906Z,24.65
2019-05-21T04:21:07.709Z,24.52
2019-05-21T04:23:36.241Z,24.35
2019-05-21T04:26:04.872Z,24.25
2019-05-21T04:28:33.422Z,25.23
2019-05-21T04:31:02.072Z,25.62
2019-05-21T04:33:30.793Z,27.13
2019-05-21T04:35:59.362Z,23.67
2019-05-21T04:38:28.019Z,22.82
2019-05-21T04:40:56.546Z,24.10
2019-05-21T04:43:25.066Z,24.82
2019-05-21T04:45:53.608Z,25.08
2019-05-21T04:48:22.124Z,25.70
2019-05-21T04:50:50.669Z,24.85
2019-05-21T04:53:19.281Z,24.90
2019-05-21T04:55:47.800Z,28.25
2019-05-21T04:58:16.426Z,23.75
2019-05-21T05:00:45.087Z,24.72
2019-05-21T05:03:13.605Z,24.30
2019-05-21T05:05:42.235Z,23.85
2019-05-21T05:08:10.893Z,22.98
2019-05-21T05:10:39.690Z,23.57
2019-05-21T05:13:08.320Z,22.32
2019-05-21T05:15:36.911Z,25.08
2019-05-21T05:18:05.471Z,23.95
2019-05-21T05:20:33.988Z,24.85
2019-05-21T05:23:02.645Z,24.07
2019-05-21T05:25:31.278Z,23.52
2019-05-21T05:27:59.803Z,23.62
2019-05-21T05:30:28.703Z,24.70
2019-05-21T05:32:57.221Z,24.12
2019-05-21T05:35:25.776Z,25.17
2019-05-21T05:37:54.320Z,23.90
2019-05-21T05:40:23.178Z,24.27
2019-05-21T05:42:51.718Z,24.87
2019-05-21T05:45:20.856Z,25.50
2019-05-21T05:47:49.379Z,22.32
2019-05-21T05:50:20.670Z,21.65
2019-05-21T05:52:49.217Z,21.70
2019-05-21T05:55:17.840Z,21.80
2019-05-21T05:57:46.375Z,22.17
2019-05-21T06:00:16.763Z,21.27
2019-05-21T06:02:45.247Z,21.95
2019-05-21T06:05:14.295Z,21.55
2019-05-21T06:07:42.823Z,22.17
2019-05-21T06:10:11.697Z,21.30
2019-05-21T06:12:40.218Z,22.20
2019-05-21T06:15:09.269Z,22.30
2019-05-21T06:17:37.788Z,20.70
2019-05-21T06:20:07.330Z,21.87
2019-05-21T06:22:35.882Z,22.45
2019-05-21T06:25:05.305Z,24.45
2019-05-21T06:27:33.970Z,24.32
2019-05-21T06:30:03.322Z,24.63
2019-05-21T06:32:32.065Z,25.40
2019-05-21T06:35:00.698Z,28.20
2019-05-21T06:37:29.366Z,26.40
2019-05-21T06:39:58.003Z,23.50
2019-05-21T06:42:26.561Z,24.60
2019-05-21T06:44:55.224Z,24.40
2019-05-21T06:47:23.845Z,22.17
2019-05-21T06:49:52.913Z,22.95
2019-05-21T06:52:22.039Z,22.05
2019-05-21T06:54:51.033Z,22.70
2019-05-21T06:57:19.648Z,21.00
2019-05-21T06:59:48.211Z,19.82
2019-05-21T07:02:16.861Z,19.35
2019-05-21T07:04:45.587Z,19.55
2019-05-21T07:07:14.342Z,18.65
2019-05-21T07:09:42.832Z,19.07
2019-05-21T07:12:11.467Z,19.37
2019-05-21T07:14:40.033Z,17.37
2019-05-21T07:17:08.759Z,17.12
2019-05-21T07:19:37.394Z,17.52
2019-05-21T07:22:12.544Z,17.20
2019-05-21T07:24:36.634Z,16.75
2019-05-21T07:27:05.433Z,16.67
2019-05-21T07:29:34.027Z,15.45
2019-05-21T07:32:02.798Z,15.72
2019-05-21T07:34:31.465Z,16.40
2019-05-21T07:37:00.115Z,17.67
2019-05-21T07:39:28.679Z,16.52
2019-05-21T07:41:57.231Z,17.05
2019-05-21T07:44:26.195Z,18.95
2019-05-21T07:46:54.908Z,17.32
2019-05-21T07:49:23.442Z,17.77
2019-05-21T07:51:52.312Z,16.25
2019-05-21T07:54:20.868Z,15.20
2019-05-21T07:56:49.409Z,17.57
2019-05-21T07:59:17.983Z,16.25
2019-05-21T08:01:46.665Z,16.73
2019-05-21T08:04:15.505Z,16.32
2019-05-21T08:06:44.319Z,16.75
2019-05-21T08:09:14.695Z,18.12
2019-05-21T08:11:46.636Z,17.00
2019-05-21T08:14:14.075Z,18.55
2019-05-21T08:16:42.932Z,16.00
2019-05-21T08:19:11.708Z,15.78
2019-05-21T08:21:40.384Z,15.20
2019-05-21T08:24:09.007Z,16.50
2019-05-21T08:26:37.668Z,15.28
2019-05-21T08:29:06.315Z,14.40
2019-05-21T08:31:34.861Z,15.20
2019-05-21T08:34:03.568Z,15.45
2019-05-21T08:36:32.381Z,19.30
2019-05-21T08:39:03.584Z,16.67
2019-05-21T08:41:32.418Z,14.95
2019-05-21T08:44:01.051Z,14.83
2019-05-21T08:46:29.715Z,15.65
2019-05-21T08:48:58.361Z,15.63
2019-05-21T08:51:27.015Z,14.85
2019-05-21T08:53:56.358Z,14.07
2019-05-21T08:56:25.406Z,16.75
2019-05-21T08:58:54.905Z,13.95
2019-05-21T09:01:23.630Z,13.58
2019-05-21T09:03:52.427Z,13.15
2019-05-21T09:06:21.082Z,12.37
2019-05-21T09:08:49.705Z,13.05
2019-05-21T09:11:18.257Z,12.30
2019-05-21T09:13:46.878Z,12.80
2019-05-21T09:16:15.691Z,14.20
2019-05-21T09:18:44.272Z,14.05
2019-05-21T09:21:12.915Z,13.40
2019-05-21T09:23:41.534Z,16.48
2019-05-21T09:26:10.356Z,13.40
2019-05-21T09:28:38.982Z,13.18
2019-05-21T09:31:07.735Z,13.28
2019-05-21T09:33:36.868Z,14.25
2019-05-21T09:36:05.520Z,15.28
2019-05-21T09:38:34.169Z,14.28
2019-05-21T09:41:02.945Z,15.88
2019-05-21T09:43:31.766Z,15.38
2019-05-21T09:46:00.301Z,16.73
2019-05-21T09:48:28.881Z,14.85
2019-05-21T09:50:57.741Z,17.37
2019-05-21T09:53:26.349Z,18.02
2019-05-21T09:55:54.895Z,16.60
2019-05-21T09:58:41.739Z,16.55
2019-05-21T10:01:38.746Z,17.65
2019-05-21T10:04:07.469Z,20.20
2019-05-21T10:06:36.280Z,20.43
2019-05-21T10:09:08.924Z,22.93
2019-05-21T10:11:37.587Z,24.37
2019-05-21T10:14:06.373Z,21.68
2019-05-21T10:16:35.164Z,20.97
2019-05-21T10:19:04.006Z,22.07
2019-05-21T10:21:32.756Z,20.70
2019-05-21T10:24:01.539Z,21.90
2019-05-21T10:26:30.326Z,18.27
2019-05-21T10:28:59.489Z,20.60
2019-05-21T10:31:28.120Z,19.70
2019-05-21T10:33:56.778Z,22.70
2019-05-21T10:36:25.440Z,21.77
2019-05-21T10:38:54.166Z,20.15
2019-05-21T10:41:22.952Z,20.85
2019-05-21T10:43:51.579Z,21.07
2019-05-21T10:46:20.291Z,21.17
2019-05-21T10:48:49.145Z,19.07
2019-05-21T10:51:17.940Z,19.67
2019-05-21T10:53:46.809Z,21.35
2019-05-21T10:56:15.576Z,19.27
2019-05-21T10:58:44.552Z,22.20
2019-05-21T11:01:35.996Z,21.07
2019-05-21T11:04:16.751Z,18.95
2019-05-21T11:06:45.908Z,20.17
2019-05-21T11:09:18.071Z,21.37
2019-05-21T11:11:46.852Z,20.60
2019-05-21T11:14:15.602Z,24.67
2019-05-21T11:16:44.406Z,20.72
2019-05-21T11:19:13.065Z,20.90
2019-05-21T11:21:41.805Z,18.95
2019-05-21T11:24:10.715Z,19.62
2019-05-21T11:26:39.423Z,20.02
2019-05-21T11:29:08.116Z,22.60
2019-05-21T11:31:36.937Z,19.85
2019-05-21T11:34:05.967Z,19.55
2019-05-21T11:36:34.672Z,20.25
2019-05-21T11:39:06.577Z,21.52
2019-05-21T11:41:35.759Z,22.58
2019-05-21T11:44:04.457Z,21.90
2019-05-21T11:46:33.135Z,20.43
2019-05-21T11:49:01.801Z,20.45
2019-05-21T11:51:30.651Z,20.45
2019-05-21T11:53:59.185Z,21.52
2019-05-21T11:56:27.740Z,20.32
2019-05-21T11:58:56.538Z,20.50
2019-05-21T12:01:25.269Z,19.70
2019-05-21T12:03:53.932Z,20.70
2019-05-21T12:06:22.702Z,22.73
2019-05-21T12:08:56.627Z,19.50
2019-05-21T12:11:21.964Z,23.02
2019-05-21T12:13:50.730Z,21.27
2019-05-21T12:16:19.347Z,20.70
2019-05-21T12:18:47.875Z,19.75
2019-05-21T12:21:16.591Z,19.12
2019-05-21T12:23:45.149Z,19.70
2019-05-21T12:26:13.911Z,19.42
2019-05-21T12:28:42.806Z,19.40
2019-05-21T12:31:11.600Z,20.10
2019-05-21T12:33:40.218Z,23.02
2019-05-21T12:36:09.498Z,19.98
2019-05-21T12:38:38.043Z,19.60
2019-05-21T12:41:06.546Z,21.02
2019-05-21T12:43:35.425Z,20.45
2019-05-21T12:46:04.851Z,20.43
2019-05-21T12:48:33.604Z,18.67
2019-05-21T12:51:02.392Z,18.55
2019-05-21T12:53:30.925Z,23.15
2019-05-21T12:55:59.674Z,18.95
2019-05-21T12:58:28.209Z,20.32
2019-05-21T13:00:56.745Z,19.00
2019-05-21T13:03:25.383Z,18.73
2019-05-21T13:05:54.168Z,18.77
2019-05-21T13:08:23.143Z,20.37
2019-05-21T13:10:51.768Z,18.55
2019-05-21T13:13:20.520Z,18.80
2019-05-21T13:15:49.140Z,20.02
2019-05-21T13:18:17.769Z,20.90
2019-05-21T13:20:46.417Z,32.95
2019-05-21T13:23:14.943Z,21.17
2019-05-21T13:25:43.608Z,19.52
2019-05-21T13:28:12.149Z,20.00
2019-05-21T13:30:40.849Z,20.23
2019-05-21T13:33:09.489Z,22.95
2019-05-21T13:35:38.243Z,19.30
2019-05-21T13:38:06.871Z,19.15
2019-05-21T13:40:36.283Z,20.97
2019-05-21T13:43:05.122Z,20.57
2019-05-21T13:45:33.817Z,18.77
2019-05-21T13:48:02.561Z,20.35
2019-05-21T13:50:31.289Z,20.45
2019-05-21T13:52:59.836Z,20.57
2019-05-21T13:55:28.643Z,20.40
2019-05-21T13:57:57.527Z,20.27
2019-05-21T14:00:31.266Z,19.85
2019-05-21T14:03:00.002Z,20.23
2019-05-21T14:05:29.098Z,20.90
2019-05-21T14:07:57.872Z,20.52
2019-05-21T14:10:26.736Z,21.82
2019-05-21T14:12:55.294Z,22.50
2019-05-21T14:15:23.945Z,22.73
2019-05-21T14:17:52.706Z,21.12
2019-05-21T14:20:21.439Z,24.47
2019-05-21T14:22:49.972Z,26.62
2019-05-21T14:25:18.513Z,28.32
2019-05-21T14:27:47.312Z,28.38
2019-05-21T14:30:16.173Z,30.82
2019-05-21T14:32:44.824Z,29.60
2019-05-21T14:35:13.472Z,30.62
2019-05-21T14:37:42.029Z,29.32
2019-05-21T14:40:28.472Z,30.37
2019-05-21T14:42:58.553Z,30.00
2019-05-21T14:45:14.027Z,29.87
2019-05-21T14:47:42.670Z,28.98
2019-05-21T14:50:11.735Z,28.52
2019-05-21T14:52:40.471Z,27.98
2019-05-21T14:55:09.237Z,30.43
2019-05-21T14:57:37.847Z,28.23
2019-05-21T15:00:17.001Z,27.17
2019-05-21T15:02:45.538Z,26.62
2019-05-21T15:05:14.455Z,26.02
2019-05-21T15:07:43.002Z,26.87
2019-05-21T15:10:11.868Z,26.25
2019-05-21T15:12:40.550Z,27.75
2019-05-21T15:15:09.300Z,25.40
2019-05-21T15:17:38.013Z,25.45
2019-05-21T15:20:13.328Z,26.52
2019-05-21T15:22:42.042Z,26.37
2019-05-21T15:25:10.704Z,25.90
2019-05-21T15:27:39.251Z,24.57
2019-05-21T15:30:08.243Z,23.00
2019-05-21T15:32:36.916Z,24.70
2019-05-21T15:35:05.648Z,25.17
2019-05-21T15:37:34.375Z,23.67
2019-05-21T15:40:03.793Z,24.55
2019-05-21T15:42:32.445Z,24.55
2019-05-21T15:45:01.176Z,28.60
2019-05-21T15:47:29.843Z,23.95
2019-05-21T15:49:58.383Z,24.67
2019-05-21T15:52:27.014Z,24.60
2019-05-21T15:54:55.861Z,24.25
2019-05-21T15:57:24.480Z,22.95
2019-05-21T15:59:53.115Z,23.25
2019-05-21T16:02:21.755Z,24.32
2019-05-21T16:04:50.311Z,22.98
2019-05-21T16:07:18.825Z,23.90
2019-05-21T16:09:47.396Z,23.27
2019-05-21T16:12:16.030Z,23.60
2019-05-21T16:14:44.573Z,24.82
2019-05-21T16:17:13.322Z,25.62
2019-05-21T16:19:41.841Z,25.17
2019-05-21T16:22:10.362Z,23.67
2019-05-21T16:24:39.137Z,22.35
2019-05-21T16:27:07.666Z,22.77
2019-05-21T16:29:36.312Z,23.05
2019-05-21T16:32:05.045Z,24.00
2019-05-21T16:34:33.977Z,22.62
2019-05-21T16:37:02.713Z,24.02
2019-05-21T16:39:31.574Z,22.82
2019-05-21T16:42:00.223Z,23.50
2019-05-21T16:44:28.789Z,24.37
2019-05-21T16:46:57.316Z,20.85
2019-05-21T16:49:25.984Z,23.12
2019-05-21T16:51:54.804Z,22.42
2019-05-21T16:54:23.544Z,23.83
2019-05-21T16:56:52.063Z,24.43
2019-05-21T16:59:20.728Z,26.70
2019-05-21T17:01:49.471Z,26.30
2019-05-21T17:04:17.987Z,24.98
2019-05-21T17:06:46.514Z,23.45
2019-05-21T17:09:15.269Z,25.20
2019-05-21T17:11:57.510Z,26.52
2019-05-21T17:14:14.211Z,27.32
2019-05-21T17:16:42.822Z,25.50
2019-05-21T17:19:11.363Z,25.27
2019-05-21T17:21:40.106Z,25.50
2019-05-21T17:24:08.680Z,23.57
2019-05-21T17:26:37.204Z,24.37
2019-05-21T17:29:05.764Z,24.23
2019-05-21T17:31:34.285Z,23.75
2019-05-21T17:34:03.105Z,23.77
2019-05-21T17:36:31.731Z,23.38
2019-05-21T17:39:00.654Z,24.57
2019-05-21T17:41:29.237Z,23.67
2019-05-21T17:43:58.060Z,21.68
2019-05-21T17:46:26.980Z,20.15
2019-05-21T17:48:55.732Z,22.25
2019-05-21T17:51:24.461Z,20.90
2019-05-21T17:53:53.097Z,19.73
2019-05-21T17:56:21.716Z,20.48
2019-05-21T17:58:50.446Z,20.70
2019-05-21T18:01:19.902Z,19.40
2019-05-21T18:03:48.521Z,20.82
2019-05-21T18:06:18.022Z,20.43
2019-05-21T18:08:47.040Z,18.98
2019-05-21T18:11:16.540Z,19.52
2019-05-21T18:13:48.105Z,24.07
2019-05-21T18:16:17.486Z,19.15
2019-05-21T18:18:46.104Z,18.82
2019-05-21T18:21:15.821Z,19.82
2019-05-21T18:23:44.780Z,19.27
2019-05-21T18:26:13.610Z,19.75
2019-05-21T18:28:42.147Z,21.23
2019-05-21T18:31:11.111Z,18.55
2019-05-21T18:33:39.834Z,18.70
2019-05-21T18:36:08.448Z,17.90
2019-05-21T18:38:37.448Z,17.73
2019-05-21T18:41:05.981Z,18.02
2019-05-21T18:43:34.723Z,16.93
2019-05-21T18:46:03.480Z,20.60
2019-05-21T18:48:32.123Z,20.10
2019-05-21T18:51:00.747Z,18.17
2019-05-21T18:53:29.395Z,17.07
2019-05-21T18:55:57.930Z,16.65
2019-05-21T18:58:27.135Z,16.97
2019-05-21T19:00:55.905Z,18.27
2019-05-21T19:03:26.031Z,18.42
2019-05-21T19:05:54.847Z,18.10
2019-05-21T19:08:23.490Z,19.87
2019-05-21T19:10:52.018Z,18.25
2019-05-21T19:13:20.643Z,22.07
2019-05-21T19:15:49.276Z,18.17
2019-05-21T19:18:17.814Z,22.42
2019-05-21T19:20:49.855Z,19.55
2019-05-21T19:23:17.225Z,20.90
2019-05-21T19:25:45.801Z,20.50
2019-05-21T19:28:14.317Z,20.23
2019-05-21T19:30:43.030Z,19.62
2019-05-21T19:33:11.636Z,21.07
2019-05-21T19:35:40.418Z,21.12
2019-05-21T19:38:08.953Z,22.90
2019-05-21T19:40:37.489Z,21.48
2019-05-21T19:43:06.136Z,22.32
2019-05-21T19:45:34.906Z,21.57
2019-05-21T19:48:03.746Z,24.10
2019-05-21T19:50:32.876Z,23.55
2019-05-21T19:53:01.523Z,23.27
2019-05-21T19:55:31.367Z,22.95
2019-05-21T19:57:59.931Z,23.10
2019-05-21T20:00:30.526Z,23.38
2019-05-21T20:02:59.269Z,23.00
2019-05-21T20:05:28.387Z,23.38
2019-05-21T20:07:57.035Z,22.82
2019-05-21T20:10:25.552Z,23.60
2019-05-21T20:12:54.415Z,23.35
2019-05-21T20:15:23.557Z,22.77
2019-05-21T20:18:06.623Z,21.73
2019-05-21T20:20:25.610Z,21.87
2019-05-21T20:22:55.452Z,21.85
2019-05-21T20:25:26.010Z,24.32
2019-05-21T20:27:54.648Z,21.95
2019-05-21T20:30:24.121Z,20.77
2019-05-21T20:32:53.536Z,20.25
2019-05-21T20:35:24.832Z,21.55
2019-05-21T20:37:54.279Z,22.52
2019-05-21T20:40:25.103Z,23.02
2019-05-21T20:42:54.455Z,21.15
2019-05-21T20:45:23.269Z,20.75
2019-05-21T20:47:52.305Z,19.73
2019-05-21T20:50:22.801Z,20.23
2019-05-21T20:52:51.919Z,19.87
2019-05-21T20:55:20.536Z,20.48
2019-05-21T20:57:49.389Z,20.30
2019-05-21T21:00:22.729Z,21.80
2019-05-21T21:02:52.097Z,24.52
2019-05-21T21:05:20.912Z,21.10
2019-05-21T21:07:50.340Z,21.93
2019-05-21T21:10:19.872Z,21.85
2019-05-21T21:12:49.111Z,26.12
2019-05-21T21:15:17.922Z,25.85
2019-05-21T21:17:47.162Z,24.00
2019-05-21T21:20:15.883Z,25.05
2019-05-21T21:22:45.308Z,26.68
2019-05-21T21:25:19.292Z,26.82
2019-05-21T21:27:48.023Z,24.65
2019-05-21T21:30:17.061Z,24.70
2019-05-21T21:32:45.685Z,24.75
2019-05-21T21:35:14.993Z,23.95
2019-05-21T21:37:43.531Z,23.62
2019-05-21T21:40:13.830Z,25.02
2019-05-21T21:42:43.153Z,24.45
2019-05-21T21:45:12.369Z,24.85
2019-05-21T21:47:41.105Z,23.80
2019-05-21T21:50:10.797Z,25.72
2019-05-21T21:52:39.661Z,25.62
2019-05-21T21:55:09.068Z,25.23
2019-05-21T21:57:37.687Z,28.67
2019-05-21T22:00:22.206Z,27.22
2019-05-21T22:05:20.782Z,28.15
2019-05-21T22:07:50.210Z,30.43
2019-05-21T22:10:19.724Z,30.72
2019-05-21T22:12:48.256Z,30.55
2019-05-21T22:15:17.367Z,28.83
2019-05-21T22:17:46.301Z,28.50
2019-05-21T22:20:15.541Z,30.62
2019-05-21T22:22:44.217Z,30.52
2019-05-21T22:25:12.881Z,31.02
2019-05-21T22:27:41.524Z,31.07
2019-05-21T22:30:10.614Z,33.48
2019-05-21T22:32:39.232Z,31.93
2019-05-21T22:35:08.235Z,33.70
2019-05-21T22:37:36.757Z,33.08
2019-05-21T22:40:05.968Z,32.40
2019-05-21T22:42:35.143Z,33.58
2019-05-21T22:45:08.406Z,31.65
2019-05-21T22:47:36.904Z,33.23
2019-05-21T22:50:06.060Z,31.10
2019-05-21T22:52:34.681Z,30.95
2019-05-21T22:55:03.398Z,32.20
2019-05-21T22:57:31.908Z,28.45
2019-05-21T23:00:00.516Z,31.30
2019-05-21T23:02:32.499Z,31.23
2019-05-21T23:05:01.615Z,30.97
2019-05-21T23:07:30.484Z,29.70
2019-05-21T23:09:59.593Z,31.23
2019-05-21T23:12:28.895Z,30.97
2019-05-21T23:14:57.434Z,31.42
2019-05-21T23:17:26.443Z,30.62
2019-05-21T23:19:55.065Z,30.88
2019-05-21T23:22:24.108Z,29.80
2019-05-21T23:24:53.552Z,28.50
2019-05-21T23:27:23.873Z,28.42
2019-05-21T23:29:52.714Z,29.40
2019-05-21T23:32:21.259Z,29.57
2019-05-21T23:34:51.000Z,30.25
2019-05-21T23:37:21.190Z,28.70
2019-05-21T23:39:51.315Z,28.12
2019-05-21T23:42:29.058Z,27.25
2019-05-21T23:44:51.005Z,28.83
2019-05-21T23:47:19.909Z,28.70
2019-05-21T23:49:48.525Z,27.82
2019-05-21T23:52:17.301Z,27.15
2019-05-21T23:54:45.908Z,25.02
2019-05-21T23:57:19.752Z,27.48
2019-05-21T23:59:49.326Z,27.32
